Time;durP1;ratioP1;P1;durP2;ratioP2;P2;SDS_P1;SDS_P2;PMS_P1;PMS_P2;Temp;Humidity;BMP_temperature;BMP_pressure;BME280_temperature;BME280_humidity;BME280_pressure;Samples;Min_cycle;Max_cycle;Signal;HPM_P1;HPM_P2
2024/01/19 00:02:23;;;;;;;18.33;13.13;;;;;;;16.35;47.60;92317.66;4991012;28;20693;-88
2024/01/19 00:04:48;;;;;;;17.52;12.73;;;;;;;16.36;47.48;92327.31;4992026;28;20527;-86
2024/01/19 00:07:14;;;;;;;15.43;11.90;;;;;;;16.36;47.03;92326.56;4988100;28;20053;-90
2024/01/19 00:09:40;;;;;;;15.23;10.85;;;;;;;16.37;46.86;92336.97;4998127;28;20816;-88
2024/01/19 00:12:05;;;;;;;17.95;12.15;;;;;;;16.35;47.02;92342.22;5007362;28;20038;-85
2024/01/19 00:14:30;;;;;;;19.75;12.07;;;;;;;16.36;47.13;92337.50;4991297;28;20084;-84
2024/01/19 00:16:56;;;;;;;17.10;11.95;;;;;;;16.34;47.09;92342.72;4990468;28;20037;-92
2024/01/19 00:19:22;;;;;;;16.35;12.13;;;;;;;16.37;46.79;92338.97;4991192;28;21686;-91
2024/01/19 00:21:47;;;;;;;14.18;10.23;;;;;;;16.39;46.83;92342.63;4991471;28;20052;-90
2024/01/19 00:24:13;;;;;;;15.38;11.63;;;;;;;16.33;47.23;92341.25;4990764;28;20464;-85
2024/01/19 00:26:38;;;;;;;16.98;12.18;;;;;;;16.39;46.83;92356.28;4991291;28;20038;-86
2024/01/19 00:29:04;;;;;;;18.45;11.40;;;;;;;16.35;47.14;92346.94;5006616;28;20499;-85
2024/01/19 00:31:29;;;;;;;14.63;10.57;;;;;;;16.38;47.20;92363.00;4990512;28;20046;-85
2024/01/19 00:33:55;;;;;;;15.18;12.05;;;;;;;16.41;46.94;92363.94;4971481;28;20046;-89
2024/01/19 00:36:20;;;;;;;13.85;11.00;;;;;;;16.41;46.87;92369.41;4967586;28;20045;-87
2024/01/19 00:38:46;;;;;;;14.93;10.98;;;;;;;16.43;47.14;92372.34;4993826;28;20085;-88
2024/01/19 00:41:11;;;;;;;15.55;11.75;;;;;;;16.37;46.96;92368.97;5007313;28;20038;-88
2024/01/19 00:43:37;;;;;;;13.45;10.73;;;;;;;16.37;47.04;92375.16;5007273;28;20414;-85
2024/01/19 00:46:03;;;;;;;16.92;11.63;;;;;;;16.35;46.86;92379.66;4988361;28;20034;-88
2024/01/19 00:48:29;;;;;;;17.38;10.63;;;;;;;16.34;47.07;92380.91;5003572;28;20528;-91
2024/01/19 00:50:54;;;;;;;13.57;9.70;;;;;;;16.34;47.15;92376.19;5011388;28;20050;-87
2024/01/19 00:53:19;;;;;;;14.75;10.65;;;;;;;16.37;46.52;92379.88;4973247;28;20116;-85
2024/01/19 00:55:45;;;;;;;14.32;9.68;;;;;;;16.35;46.71;92394.03;4990771;28;20608;-86
2024/01/19 00:58:10;;;;;;;15.30;11.18;;;;;;;16.39;47.33;92393.72;5005500;28;20768;-88
2024/01/19 01:00:36;;;;;;;17.48;11.23;;;;;;;16.34;46.82;92402.72;5007172;28;20540;-88
2024/01/19 01:03:02;;;;;;;13.63;10.32;;;;;;;16.34;46.75;92414.38;5003972;28;20050;-88
2024/01/19 01:05:27;;;;;;;13.90;9.80;;;;;;;16.34;46.92;92403.47;5022847;28;20953;-92
2024/01/19 01:07:52;;;;;;;15.00;9.63;;;;;;;16.38;46.68;92420.25;4990566;28;20065;-89
2024/01/19 01:10:18;;;;;;;14.38;9.90;;;;;;;16.31;46.74;92417.41;4989766;28;20503;-90
2024/01/19 01:12:43;;;;;;;12.20;9.45;;;;;;;16.32;47.01;92421.59;4979033;28;20049;-87
2024/01/19 01:15:09;;;;;;;14.63;9.98;;;;;;;16.36;46.98;92425.50;4989131;28;20048;-90
2024/01/19 01:17:34;;;;;;;12.15;9.57;;;;;;;16.37;46.62;92424.25;5003235;28;20309;-85
2024/01/19 01:20:00;;;;;;;15.13;10.23;;;;;;;16.36;46.88;92435.69;5014949;28;20116;-85
2024/01/19 01:22:26;;;;;;;12.88;9.32;;;;;;;16.34;47.04;92432.72;5005635;28;20037;-90
2024/01/19 01:24:52;;;;;;;11.82;8.95;;;;;;;16.39;46.72;92434.63;4989596;28;20038;-85
2024/01/19 01:27:17;;;;;;;11.90;10.00;;;;;;;16.39;46.39;92431.91;4970963;28;20041;-92
2024/01/19 01:29:42;;;;;;;13.10;10.05;;;;;;;16.36;46.74;92433.69;4990125;28;20042;-86
2024/01/19 01:32:08;;;;;;;12.65;9.48;;;;;;;16.31;46.56;92434.50;5005685;28;20038;-89
2024/01/19 01:34:33;;;;;;;14.10;9.52;;;;;;;16.33;46.80;92445.63;5007272;28;20519;-86
2024/01/19 01:37:00;;;;;;;13.32;10.00;;;;;;;16.40;46.37;92463.38;4970168;28;20615;-87
2024/01/19 01:39:25;;;;;;;12.15;9.23;;;;;;;16.32;46.83;92468.69;4989487;28;20044;-91
2024/01/19 01:41:51;;;;;;;12.27;9.02;;;;;;;16.32;46.79;92468.69;4993110;28;20440;-85
2024/01/19 01:44:16;;;;;;;12.52;9.15;;;;;;;16.38;46.54;92479.53;4981675;28;20041;-85
2024/01/19 01:46:42;;;;;;;14.20;8.65;;;;;;;16.33;46.99;92469.44;4985798;28;20417;-90
2024/01/19 01:49:07;;;;;;;12.02;8.50;;;;;;;16.33;46.72;92477.63;4969450;28;20433;-86
2024/01/19 01:51:33;;;;;;;12.32;8.27;;;;;;;16.36;46.68;92476.59;5022538;28;20050;-87
2024/01/19 01:53:58;;;;;;;10.88;7.97;;;;;;;16.38;45.70;92480.28;4969857;28;20171;-85
2024/01/19 01:56:24;;;;;;;12.50;8.90;;;;;;;16.34;46.89;92484.56;4963457;28;20038;-91
2024/01/19 01:58:49;;;;;;;10.93;7.93;;;;;;;16.36;46.27;92471.88;4969656;28;20046;-90
2024/01/19 02:01:15;;;;;;;13.30;9.20;;;;;;;16.32;46.39;92482.34;4970347;28;20072;-87
2024/01/19 02:03:40;;;;;;;10.25;7.72;;;;;;;16.34;46.59;92477.09;4989498;28;20041;-91
2024/01/19 02:06:06;;;;;;;10.52;8.55;;;;;;;16.37;46.43;92486.97;5005978;28;20098;-85
2024/01/19 02:08:31;;;;;;;12.18;8.55;;;;;;;16.31;47.02;92486.31;4987311;28;20061;-86
2024/01/19 02:10:56;;;;;;;11.23;7.95;;;;;;;16.32;46.53;92485.06;5005802;28;20041;-93
2024/01/19 02:13:22;;;;;;;10.95;8.20;;;;;;;16.31;46.66;92489.03;4973219;28;20050;-88
2024/01/19 02:15:47;;;;;;;11.25;8.40;;;;;;;16.34;45.97;92493.47;4971442;28;20030;-88
2024/01/19 02:18:13;;;;;;;11.05;8.80;;;;;;;16.33;46.63;92497.44;4998304;28;20080;-87
2024/01/19 02:20:39;;;;;;;12.13;7.80;;;;;;;16.33;46.49;92502.91;4973412;28;20434;-86
2024/01/19 02:23:04;;;;;;;10.82;8.13;;;;;;;16.34;46.41;92503.63;5005028;28;20411;-89
2024/01/19 02:25:30;;;;;;;10.38;8.23;;;;;;;16.35;46.17;92507.84;4988627;28;20061;-91
2024/01/19 02:27:55;;;;;;;12.70;7.53;;;;;;;16.34;46.37;92515.28;5022617;28;20030;-86
2024/01/19 02:30:21;;;;;;;11.45;8.27;;;;;;;16.34;46.53;92520.00;4988479;28;20050;-85
2024/01/19 02:32:47;;;;;;;10.55;7.88;;;;;;;16.33;46.38;92518.53;4986506;28;20398;-88
2024/01/19 02:35:12;;;;;;;9.65;7.95;;;;;;;16.35;46.26;92519.50;5004830;28;20061;-85
2024/01/19 02:37:37;;;;;;;11.38;7.57;;;;;;;16.38;45.85;92534.81;5005886;28;20499;-88
2024/01/19 02:40:05;;;;;;;11.50;8.30;;;;;;;16.32;45.99;92536.16;5007374;28;20063;-85
2024/01/19 02:42:31;;;;;;;12.40;8.02;;;;;;;16.33;46.65;92518.53;4989486;28;20042;-89
2024/01/19 02:44:59;;;;;;;12.30;8.23;;;;;;;16.31;46.29;92532.69;4989124;28;20069;-87
2024/01/19 02:47:27;;;;;;;13.80;9.27;;;;;;;16.33;46.28;92529.44;4988590;28;20038;-86
2024/01/19 02:49:53;;;;;;;9.82;7.15;;;;;;;16.35;46.18;92538.56;4990152;28;20042;-86
2024/01/19 02:52:18;;;;;;;9.52;6.78;;;;;;;16.29;46.57;92539.91;5007367;28;20083;-87
2024/01/19 02:54:44;;;;;;;10.00;7.43;;;;;;;16.28;46.29;92547.34;4972543;28;20781;-87
2024/01/19 02:57:09;;;;;;;9.52;7.65;;;;;;;16.27;46.48;92543.16;4984666;28;20050;-85
2024/01/19 02:59:35;;;;;;;12.82;7.60;;;;;;;16.31;46.09;92551.78;5021512;28;20060;-85
2024/01/19 03:02:00;;;;;;;11.20;7.15;;;;;;;16.28;46.14;92541.16;4985967;28;20054;-89
2024/01/19 03:04:26;;;;;;;11.38;7.53;;;;;;;16.33;46.25;92541.09;4976659;28;20045;-84
2024/01/19 03:06:52;;;;;;;11.73;7.55;;;;;;;16.27;46.53;92550.59;4990114;28;20684;-87
2024/01/19 03:09:17;;;;;;;9.45;7.20;;;;;;;16.23;46.18;92563.81;5011221;28;20038;-86
2024/01/19 03:11:43;;;;;;;10.40;7.55;;;;;;;16.21;46.32;92567.06;5004596;28;20044;-88
2024/01/19 03:14:09;;;;;;;9.25;7.18;;;;;;;16.25;46.31;92566.72;4975031;28;20492;-89
2024/01/19 03:16:40;;;;;;;10.68;6.90;;;;;;;16.23;46.35;92569.25;4977868;28;20102;-86
2024/01/19 03:19:06;;;;;;;9.27;6.70;;;;;;;16.29;46.67;92567.19;4996868;28;20045;-92
2024/01/19 03:21:31;;;;;;;8.82;6.32;;;;;;;16.24;46.52;92578.91;5008953;28;20085;-86
2024/01/19 03:23:57;;;;;;;9.02;6.72;;;;;;;16.26;46.47;92584.56;4973783;28;20497;-88
2024/01/19 03:26:22;;;;;;;9.45;7.53;;;;;;;16.28;46.36;92580.06;4990801;28;20724;-89
2024/01/19 03:28:48;;;;;;;8.55;6.68;;;;;;;16.26;46.29;92585.31;4992003;28;20050;-87
2024/01/19 03:31:13;;;;;;;10.13;7.03;;;;;;;16.29;46.49;92591.72;4990876;28;20416;-85
2024/01/19 03:33:38;;;;;;;9.55;7.07;;;;;;;16.27;46.31;92589.50;4975941;28;20051;-91
2024/01/19 03:36:04;;;;;;;8.57;6.60;;;;;;;16.29;45.74;92597.91;4974505;28;20437;-85
2024/01/19 03:38:30;;;;;;;8.20;6.70;;;;;;;16.36;45.31;92594.59;4988878;28;20050;-89
2024/01/19 03:40:56;;;;;;;10.25;7.45;;;;;;;16.30;46.08;92596.66;5008276;28;20049;-93
2024/01/19 03:43:21;;;;;;;7.78;5.90;;;;;;;16.31;46.22;92598.13;4992710;28;20038;-86
2024/01/19 03:45:47;;;;;;;8.70;6.68;;;;;;;16.28;46.21;92609.34;4988248;28;20074;-86
2024/01/19 03:48:12;;;;;;;9.85;6.90;;;;;;;16.25;46.39;92611.09;4987930;28;20416;-88
2024/01/19 03:50:38;;;;;;;10.88;6.68;;;;;;;16.28;46.35;92612.06;4992196;28;20042;-88
2024/01/19 03:53:03;;;;;;;9.13;6.47;;;;;;;16.26;46.03;92612.56;4992951;28;20091;-86
2024/01/19 03:55:29;;;;;;;8.05;6.30;;;;;;;16.26;46.22;92618.03;4991421;28;20049;-93
2024/01/19 03:57:54;;;;;;;8.05;6.28;;;;;;;16.29;45.75;92617.00;4973687;28;20034;-90
2024/01/19 04:00:20;;;;;;;8.50;6.30;;;;;;;16.28;46.17;92620.97;4993335;28;20056;-87
2024/01/19 04:02:45;;;;;;;8.80;6.30;;;;;;;16.35;46.04;92622.38;4990680;28;20053;-88
2024/01/19 04:05:10;;;;;;;7.60;5.65;;;;;;;16.34;45.79;92620.91;4985806;28;20053;-88
2024/01/19 04:07:36;;;;;;;7.93;6.18;;;;;;;16.28;45.37;92622.97;4978631;28;20506;-93
2024/01/19 04:10:02;;;;;;;8.20;6.45;;;;;;;16.31;45.73;92619.97;4991187;28;20055;-92
2024/01/19 04:12:27;;;;;;;6.53;5.70;;;;;;;16.32;45.54;92615.97;4969964;28;20116;-88
2024/01/19 04:14:53;;;;;;;7.63;5.95;;;;;;;16.27;45.98;92621.50;4975535;28;20042;-85
2024/01/19 04:17:18;;;;;;;9.18;6.70;;;;;;;16.35;45.53;92623.13;4969081;28;20580;-85
2024/01/19 04:19:44;;;;;;;8.05;5.95;;;;;;;16.33;45.38;92627.63;4960601;28;20484;-92
2024/01/19 04:22:09;;;;;;;7.88;6.22;;;;;;;16.35;45.72;92625.13;4969703;28;20050;-87
2024/01/19 04:24:35;;;;;;;8.60;5.65;;;;;;;16.28;46.08;92629.16;4972602;28;20080;-87
2024/01/19 04:27:00;;;;;;;8.73;5.82;;;;;;;16.36;45.43;92635.50;4974103;28;20048;-90
2024/01/19 04:29:26;;;;;;;7.70;5.63;;;;;;;16.26;46.01;92634.41;4954700;28;20413;-88
2024/01/19 04:31:52;;;;;;;10.65;5.68;;;;;;;16.27;45.72;92643.31;4974645;28;20517;-89
2024/01/19 04:34:17;;;;;;;7.43;5.72;;;;;;;16.28;45.95;92658.44;4969006;28;20034;-91
2024/01/19 04:36:43;;;;;;;8.82;5.78;;;;;;;16.30;45.96;92661.38;4971907;28;20049;-92
2024/01/19 04:39:09;;;;;;;9.27;6.25;;;;;;;16.28;45.97;92664.63;4969999;28;20045;-89
2024/01/19 04:41:34;;;;;;;8.50;6.13;;;;;;;16.32;45.76;92658.88;4976694;28;20429;-86
2024/01/19 04:43:59;;;;;;;6.43;5.50;;;;;;;16.25;46.05;92668.38;4984131;28;20048;-87
2024/01/19 04:46:25;;;;;;;8.20;6.03;;;;;;;16.30;45.73;92673.03;4991551;28;20871;-93
2024/01/19 04:48:50;;;;;;;7.35;5.63;;;;;;;16.36;45.42;92665.53;4997585;28;20403;-91
2024/01/19 04:51:16;;;;;;;8.38;6.10;;;;;;;16.39;45.85;92663.75;5008561;28;20041;-92
2024/01/19 04:53:41;;;;;;;8.27;5.88;;;;;;;16.39;45.56;92674.66;4983918;28;20408;-94
2024/01/19 04:56:07;;;;;;;6.97;5.43;;;;;;;16.29;45.61;92684.44;4993002;28;20431;-93
2024/01/19 04:58:33;;;;;;;8.85;5.72;;;;;;;16.31;45.34;92685.41;4980185;28;20420;-93
2024/01/19 05:00:58;;;;;;;9.55;5.82;;;;;;;16.28;45.85;92688.44;4973052;28;20041;-86
2024/01/19 05:03:24;;;;;;;8.82;5.30;;;;;;;16.32;45.34;92703.25;4977693;28;20049;-86
2024/01/19 05:05:50;;;;;;;6.88;5.50;;;;;;;16.29;45.46;92693.38;5008846;28;20053;-91
2024/01/19 05:08:15;;;;;;;7.07;4.93;;;;;;;16.31;45.69;92695.59;4998444;28;20061;-87
2024/01/19 05:10:41;;;;;;;8.00;5.35;;;;;;;16.30;45.27;92697.56;4999648;28;20045;-89
2024/01/19 05:13:06;;;;;;;7.55;5.78;;;;;;;16.25;45.52;92692.91;4997865;28;20424;-87
2024/01/19 05:15:32;;;;;;;7.28;5.90;;;;;;;16.30;45.20;92700.28;5022516;28;20582;-85
2024/01/19 05:17:57;;;;;;;8.85;6.18;;;;;;;16.30;45.39;92699.56;4993785;28;20436;-86
2024/01/19 05:20:23;;;;;;;7.38;5.63;;;;;;;16.27;45.25;92695.13;4986900;28;20072;-87
2024/01/19 05:22:48;;;;;;;8.15;5.55;;;;;;;16.31;45.75;92698.31;5027477;28;20053;-87
2024/01/19 05:25:18;;;;;;;7.22;5.38;;;;;;;16.30;45.65;92694.84;5004242;28;20099;-91
2024/01/19 05:27:44;;;;;;;10.93;7.75;;;;;;;16.41;44.76;92686.53;4978032;28;20630;-86
2024/01/19 05:30:10;;;;;;;7.18;5.35;;;;;;;16.33;45.42;92691.09;4990622;28;20137;-91
2024/01/19 05:32:35;;;;;;;9.88;6.78;;;;;;;16.36;45.08;92686.59;4990262;28;20128;-87
2024/01/19 05:35:01;;;;;;;6.72;5.22;;;;;;;16.24;45.59;92696.19;5005749;28;20047;-88
2024/01/19 05:37:26;;;;;;;9.85;7.28;;;;;;;16.32;44.80;92703.25;5014843;28;20037;-96
2024/01/19 05:39:52;;;;;;;9.52;7.03;;;;;;;16.27;45.45;92708.75;5013915;28;20034;-87
2024/01/19 05:42:17;;;;;;;7.80;5.18;;;;;;;16.28;45.17;92713.72;5008721;28;20041;-86
2024/01/19 05:44:44;;;;;;;9.38;6.13;;;;;;;16.40;44.59;92711.59;4993143;28;20470;-89
2024/01/19 05:47:10;;;;;;;9.23;6.18;;;;;;;16.40;44.87;92717.78;4990521;28;20042;-86
2024/01/19 05:49:36;;;;;;;8.23;5.28;;;;;;;16.30;44.96;92726.84;4995150;28;20052;-93
2024/01/19 05:52:01;;;;;;;8.23;5.53;;;;;;;16.29;44.63;92726.09;4978349;28;20527;-87
2024/01/19 05:54:27;;;;;;;10.15;7.60;;;;;;;16.37;44.31;92729.00;5025298;28;20633;-86
2024/01/19 05:56:52;;;;;;;10.57;7.55;;;;;;;16.33;44.13;92740.19;4994740;28;20613;-86
2024/01/19 05:59:18;;;;;;;11.18;7.45;;;;;;;16.40;44.48;92747.06;4991009;28;20072;-90
2024/01/19 06:01:43;;;;;;;9.88;6.35;;;;;;;16.34;44.51;92749.09;4976749;28;20551;-86
2024/01/19 06:04:08;;;;;;;7.90;5.18;;;;;;;16.32;44.47;92757.81;4984230;28;20068;-92
2024/01/19 06:06:34;;;;;;;9.50;5.40;;;;;;;16.34;45.10;92757.28;4999047;28;20138;-89
2024/01/19 06:08:59;;;;;;;5.72;4.93;;;;;;;16.41;44.68;92760.19;4991866;28;20046;-88
2024/01/19 06:11:25;;;;;;;6.43;4.78;;;;;;;16.43;44.18;92763.16;4974663;28;20416;-93
2024/01/19 06:13:51;;;;;;;7.60;5.38;;;;;;;16.43;44.59;92765.13;5005951;28;20042;-89
2024/01/19 06:16:17;;;;;;;5.65;3.92;;;;;;;16.35;44.96;92769.69;4982280;28;20090;-89
2024/01/19 06:18:42;;;;;;;8.55;6.07;;;;;;;16.41;44.46;92771.09;5000539;28;20137;-87
2024/01/19 06:21:10;;;;;;;7.30;5.57;;;;;;;16.42;44.37;92769.84;5010711;28;20068;-86
2024/01/19 06:23:37;;;;;;;7.88;5.07;;;;;;;16.44;43.93;92780.25;4976104;28;20060;-86
2024/01/19 06:26:08;;;;;;;6.28;4.47;;;;;;;16.43;44.42;92776.03;4997002;28;20044;-86
2024/01/19 06:28:33;;;;;;;;;;;;;;;16.43;44.41;92767.88;4993729;28;20061;-93
2024/01/19 06:30:59;;;;;;;7.15;4.88;;;;;;;16.43;44.24;92784.97;5006751;28;19980;-88
2024/01/19 06:33:24;;;;;;;7.05;4.63;;;;;;;16.41;43.82;92792.19;5004980;28;20037;-92
2024/01/19 06:35:49;;;;;;;6.53;4.05;;;;;;;16.40;44.59;92782.53;4994244;28;20041;-87
2024/01/19 06:38:15;;;;;;;7.45;4.88;;;;;;;16.38;44.03;92796.69;4995049;28;20678;-88
2024/01/19 06:40:40;;;;;;;5.15;3.65;;;;;;;16.39;44.69;92802.88;4985669;28;20121;-92
2024/01/19 06:43:06;;;;;;;6.07;5.00;;;;;;;16.40;43.81;92813.28;4977282;28;20053;-85
2024/01/19 06:45:31;;;;;;;5.90;3.92;;;;;;;16.43;43.40;92806.78;5001950;28;20392;-89
2024/01/19 06:47:58;;;;;;;6.93;3.88;;;;;;;16.41;44.67;92814.00;5017973;28;20029;-86
2024/01/19 06:50:23;;;;;;;6.20;4.35;;;;;;;16.42;43.92;92812.75;5025257;28;20048;-86
2024/01/19 06:52:49;;;;;;;5.50;3.97;;;;;;;16.37;44.12;92819.00;5023386;28;20754;-90
2024/01/19 06:55:14;;;;;;;6.35;4.30;;;;;;;16.47;44.04;92822.84;5010895;28;20052;-91
2024/01/19 06:57:40;;;;;;;4.93;3.40;;;;;;;16.45;44.19;92836.28;4996225;28;20123;-90
2024/01/19 07:00:06;;;;;;;5.72;4.13;;;;;;;16.43;43.84;92842.25;5011644;28;20455;-87
2024/01/19 07:02:32;;;;;;;4.45;3.75;;;;;;;16.40;43.84;92839.81;4993685;28;20050;-88
2024/01/19 07:04:58;;;;;;;4.03;3.28;;;;;;;16.44;44.11;92837.53;4987593;28;20060;-92
2024/01/19 07:07:23;;;;;;;5.20;3.08;;;;;;;16.44;43.15;92843.00;4994027;28;20428;-87
2024/01/19 07:09:48;;;;;;;6.82;4.40;;;;;;;16.40;44.01;92846.00;4976495;28;20404;-87
2024/01/19 07:12:16;;;;;;;4.20;3.08;;;;;;;16.39;43.77;92849.97;4996239;28;20392;-90
2024/01/19 07:14:42;;;;;;;4.15;3.17;;;;;;;16.43;43.64;92855.16;4995608;28;20056;-92
2024/01/19 07:17:07;;;;;;;3.55;3.10;;;;;;;16.42;44.19;92857.16;5008373;28;20037;-89
2024/01/19 07:19:34;;;;;;;3.75;2.78;;;;;;;16.44;44.19;92854.66;4999890;28;20251;-90
2024/01/19 07:21:59;;;;;;;6.63;3.30;;;;;;;16.39;44.57;92860.16;4992248;28;20521;-90
2024/01/19 07:24:26;;;;;;;4.32;2.90;;;;;;;16.45;44.26;92858.81;4973705;28;20132;-93
2024/01/19 07:26:51;;;;;;;3.95;3.20;;;;;;;16.42;44.07;92880.97;4981991;28;20087;-86
2024/01/19 07:29:17;;;;;;;4.70;3.50;;;;;;;16.42;43.84;92881.69;4978713;28;20045;-86
2024/01/19 07:31:43;;;;;;;3.17;2.65;;;;;;;16.46;43.72;92881.41;4985501;28;20075;-87
2024/01/19 07:34:08;;;;;;;4.47;2.80;;;;;;;16.44;43.93;92892.84;5036776;28;20495;-86
2024/01/19 07:36:34;;;;;;;3.85;3.03;;;;;;;16.47;43.79;92885.59;5023940;28;20037;-88
2024/01/19 07:39:00;;;;;;;4.00;2.67;;;;;;;16.48;43.58;92899.97;4999109;28;20046;-89
2024/01/19 07:41:26;;;;;;;4.22;3.08;;;;;;;16.52;43.12;92893.00;5010578;28;20045;-88
2024/01/19 07:43:51;;;;;;;5.20;3.40;;;;;;;16.45;43.60;92913.38;4979248;28;20400;-86
2024/01/19 07:46:17;;;;;;;5.68;3.55;;;;;;;16.49;43.82;92913.13;4990030;28;20427;-89
2024/01/19 07:48:42;;;;;;;3.60;2.70;;;;;;;16.49;43.64;92906.91;4980216;28;20050;-87
2024/01/19 07:51:08;;;;;;;7.30;4.10;;;;;;;16.55;43.78;92910.34;4964905;28;20109;-89
2024/01/19 07:53:33;;;;;;;4.32;3.03;;;;;;;16.51;43.80;92910.63;4935787;28;20590;-88
2024/01/19 07:55:59;;;;;;;6.70;4.10;;;;;;;16.49;43.36;92907.66;4941927;28;20074;-87
2024/01/19 07:58:25;;;;;;;3.67;2.55;;;;;;;16.48;44.10;92916.34;4937108;28;20109;-86
2024/01/19 08:00:50;;;;;;;3.90;2.67;;;;;;;16.52;44.00;92931.19;4954238;28;20044;-88
2024/01/19 08:03:16;;;;;;;3.65;2.67;;;;;;;16.42;44.39;92930.81;4957710;28;20619;-87
2024/01/19 08:05:41;;;;;;;5.20;3.00;;;;;;;16.24;39.03;92928.69;4939698;28;20267;-88
2024/01/19 08:08:07;;;;;;;6.88;3.53;;;;;;;16.09;40.32;92937.25;4954069;28;20043;-88
2024/01/19 08:10:34;;;;;;;9.52;4.30;;;;;;;16.12;40.20;92935.50;4969604;28;20797;-89
2024/01/19 08:13:00;;;;;;;9.93;4.20;;;;;;;16.15;40.86;92950.09;4970651;28;20038;-86
2024/01/19 08:15:26;;;;;;;7.97;3.25;;;;;;;16.18;42.35;92952.56;4969821;28;20061;-86
2024/01/19 08:17:51;;;;;;;7.47;3.35;;;;;;;16.25;42.54;92962.16;4955486;28;20046;-89
2024/01/19 08:20:17;;;;;;;8.10;4.45;;;;;;;16.32;42.30;92954.19;4962618;28;20038;-91
2024/01/19 08:22:42;;;;;;;9.98;3.70;;;;;;;16.41;42.87;92966.78;5013447;28;20106;-91
2024/01/19 08:25:09;;;;;;;7.63;3.67;;;;;;;16.31;42.67;92965.59;4990939;28;20095;-87
2024/01/19 08:27:34;;;;;;;8.57;4.55;;;;;;;16.43;42.78;92967.75;4975146;28;20424;-88
2024/01/19 08:30:00;;;;;;;14.88;4.78;;;;;;;16.40;42.92;92974.22;4990963;28;20052;-90
2024/01/19 08:32:25;;;;;;;8.63;4.13;;;;;;;16.39;42.88;92980.19;5002655;28;20103;-87
2024/01/19 08:34:51;;;;;;;7.43;3.35;;;;;;;16.38;42.83;92982.16;4996229;28;20130;-91
2024/01/19 08:37:17;;;;;;;5.90;3.65;;;;;;;16.44;42.86;92987.59;4980470;28;20045;-92
2024/01/19 08:39:44;;;;;;;9.38;4.03;;;;;;;16.41;42.78;92988.59;4978689;28;20463;-86
2024/01/19 08:42:09;;;;;;;8.18;4.22;;;;;;;16.43;43.33;93003.22;4976707;28;20061;-86
2024/01/19 08:44:35;;;;;;;18.75;9.25;;;;;;;16.42;42.99;93009.16;5015595;28;20114;-86
2024/01/19 08:47:00;;;;;;;24.25;11.38;;;;;;;16.43;42.93;93014.13;4997123;28;20056;-93
2024/01/19 08:49:26;;;;;;;24.45;11.45;;;;;;;16.39;43.21;93015.63;5014965;28;21116;-86
2024/01/19 08:51:51;;;;;;;25.08;12.27;;;;;;;16.45;43.19;93016.34;4997624;28;20774;-90
2024/01/19 08:54:17;;;;;;;20.73;12.85;;;;;;;16.42;43.60;93025.53;4976681;28;20415;-88
2024/01/19 08:56:43;;;;;;;24.25;12.43;;;;;;;16.38;43.82;93020.34;4994900;28;20503;-92
2024/01/19 08:59:08;;;;;;;18.60;10.90;;;;;;;16.49;42.97;93033.16;4996368;28;20061;-93
2024/01/19 09:01:35;;;;;;;14.50;9.55;;;;;;;16.43;43.51;93040.66;4988066;28;20128;-87
2024/01/19 09:04:01;;;;;;;14.65;9.88;;;;;;;16.48;42.89;93041.84;4992640;28;20048;-91
2024/01/19 09:06:26;;;;;;;16.13;9.00;;;;;;;16.44;42.85;93048.34;4974604;28;20128;-91
2024/01/19 09:08:52;;;;;;;19.10;9.35;;;;;;;16.45;43.04;93047.06;4977610;28;20052;-89
2024/01/19 09:11:18;;;;;;;19.20;9.43;;;;;;;16.42;43.01;93053.56;4974559;28;20033;-88
2024/01/19 09:13:43;;;;;;;22.60;9.20;;;;;;;16.44;43.32;93064.72;4979746;28;20444;-89
2024/01/19 09:16:09;;;;;;;19.27;9.10;;;;;;;16.51;42.74;93068.13;5012570;28;20411;-87
2024/01/19 09:18:35;;;;;;;16.73;8.82;;;;;;;16.44;43.54;93074.88;4992616;28;20431;-90
2024/01/19 09:21:01;;;;;;;18.00;9.65;;;;;;;16.49;43.24;93078.81;4986965;28;20302;-90
2024/01/19 09:23:26;;;;;;;21.17;10.95;;;;;;;16.51;43.64;93074.31;4992398;28;20756;-92
2024/01/19 09:25:52;;;;;;;23.08;11.82;;;;;;;16.44;43.67;93081.09;4996911;28;20033;-91
2024/01/19 09:28:18;;;;;;;21.10;10.95;;;;;;;16.53;43.10;93090.19;4975386;28;20068;-89
2024/01/19 09:30:44;;;;;;;21.92;11.38;;;;;;;16.56;43.45;93100.09;4993708;28;20052;-90
2024/01/19 09:33:09;;;;;;;18.00;10.68;;;;;;;16.45;43.79;93098.19;4992263;28;20029;-88
2024/01/19 09:35:34;;;;;;;31.08;15.07;;;;;;;16.54;42.91;93105.31;4977269;28;20034;-88
2024/01/19 09:38:00;;;;;;;29.73;14.70;;;;;;;16.55;42.71;93115.72;5007297;28;20388;-88
2024/01/19 09:40:26;;;;;;;30.23;16.67;;;;;;;16.51;43.20;93117.97;4990489;28;20338;-89
2024/01/19 09:42:54;;;;;;;25.75;14.43;;;;;;;16.50;42.89;93121.94;5008690;28;20047;-91
2024/01/19 09:45:21;;;;;;;26.13;14.50;;;;;;;16.56;43.56;93136.31;4983282;28;20036;-87
2024/01/19 09:47:55;;;;;;;25.60;13.98;;;;;;;16.58;43.37;93138.53;4992259;28;20048;-90
2024/01/19 09:50:20;;;;;;;23.92;13.38;;;;;;;16.60;43.54;93144.22;5009114;28;20041;-88
2024/01/19 09:52:57;;;;;;;25.30;13.45;;;;;;;16.63;43.29;93148.69;4976684;28;20045;-85
2024/01/19 09:55:23;;;;;;;24.90;14.25;;;;;;;16.64;43.83;93150.19;5008364;28;20056;-89
2024/01/19 09:57:49;;;;;;;16.38;10.80;;;;;;;16.52;39.61;93151.47;4992664;28;20045;-88
2024/01/19 10:00:15;;;;;;;18.88;11.73;;;;;;;16.23;38.91;93158.31;4990900;28;20033;-87
2024/01/19 10:02:46;;;;;;;26.75;14.73;;;;;;;16.21;40.72;93167.00;4991288;28;20045;-90
2024/01/19 10:05:14;;;;;;;24.58;14.23;;;;;;;16.22;40.77;93165.75;5000320;28;20060;-90
2024/01/19 10:07:47;;;;;;;24.38;14.23;;;;;;;16.23;41.41;93169.97;4994763;28;20039;-89
2024/01/19 10:10:13;;;;;;;25.25;14.65;;;;;;;16.36;42.18;93174.88;5012020;28;20514;-88
2024/01/19 10:12:39;;;;;;;24.25;16.20;;;;;;;16.37;42.30;93179.06;5001579;28;20042;-88
2024/01/19 10:15:11;;;;;;;22.42;15.10;;;;;;;16.41;42.27;93174.09;5024496;28;20030;-88
2024/01/19 10:17:36;;;;;;;24.30;16.10;;;;;;;16.51;42.34;93190.91;5020804;28;20511;-91
2024/01/19 10:20:02;;;;;;;26.50;16.52;;;;;;;16.45;42.51;93196.41;5003672;28;20480;-90
2024/01/19 10:22:28;;;;;;;26.50;17.23;;;;;;;16.47;42.92;93193.91;5002583;28;20076;-89
2024/01/19 10:25:11;;;;;;;28.25;17.83;;;;;;;16.51;42.51;93193.63;4985613;28;20072;-91
2024/01/19 10:27:47;;;;;;;20.30;14.15;;;;;;;16.38;41.21;93197.66;4998790;28;20046;-87
2024/01/19 10:30:20;;;;;;;26.90;17.90;;;;;;;16.34;42.03;93205.38;5018324;28;20037;-89
2024/01/19 10:32:48;;;;;;;24.45;17.05;;;;;;;16.36;42.18;93208.34;4991724;28;20132;-87
2024/01/19 10:35:19;;;;;;;29.48;18.50;;;;;;;16.42;42.44;93202.88;5019190;28;20041;-88
2024/01/19 10:37:46;;;;;;;27.45;17.70;;;;;;;16.52;42.48;93216.94;5038852;28;20040;-88
2024/01/19 10:40:22;;;;;;;29.33;19.33;;;;;;;16.38;42.57;93216.78;4983969;28;20120;-89
2024/01/19 10:42:53;;;;;;;29.38;18.27;;;;;;;16.42;42.82;93219.97;4985770;28;20524;-86
2024/01/19 10:45:24;;;;;;;;;;;;;;;16.46;42.20;93227.88;4993753;28;20809;-86
2024/01/19 10:47:50;;;;;;;32.67;18.80;;;;;;;16.39;41.42;93218.25;5008335;28;20016;-88
2024/01/19 10:50:16;;;;;;;26.63;17.38;;;;;;;16.35;41.92;93223.22;5000698;28;20041;-89
2024/01/19 10:52:43;;;;;;;24.52;17.20;;;;;;;16.44;41.70;93228.41;4976899;28;20033;-87
2024/01/19 10:55:09;;;;;;;25.67;16.48;;;;;;;16.41;42.55;93221.22;4977660;28;20036;-86
2024/01/19 10:57:34;;;;;;;26.05;16.77;;;;;;;16.43;42.50;93231.63;4987393;28;20411;-88
2024/01/19 11:00:17;;;;;;;25.77;16.90;;;;;;;16.43;42.81;93237.84;4979411;28;20129;-88
2024/01/19 11:02:43;;;;;;;22.13;15.10;;;;;;;16.46;42.33;93233.34;4983370;28;20045;-90
2024/01/19 11:05:08;;;;;;;23.45;15.73;;;;;;;16.49;42.43;93229.59;4972818;28;20039;-88
2024/01/19 11:07:34;;;;;;;21.42;14.57;;;;;;;16.48;42.52;93236.31;5012629;28;20456;-88
2024/01/19 11:09:59;;;;;;;20.00;14.40;;;;;;;16.50;42.55;93247.47;4981856;28;20038;-90
2024/01/19 11:12:25;;;;;;;135.23;115.90;;;;;;;16.56;42.85;93233.81;4984951;28;20443;-88
2024/01/19 11:14:51;;;;;;;21.67;14.98;;;;;;;16.44;42.81;93225.69;4991786;28;20046;-87
2024/01/19 11:17:17;;;;;;;20.38;15.50;;;;;;;16.46;42.79;93233.34;4971418;28;20069;-87
2024/01/19 11:19:42;;;;;;;24.45;17.27;;;;;;;16.50;42.35;93233.06;4993459;28;20073;-90
2024/01/19 11:22:08;;;;;;;22.38;17.02;;;;;;;16.60;42.13;93232.31;4964512;28;20048;-86